Time;durP1;ratioP1;P1;durP2;ratioP2;P2;SDS_P1;SDS_P2;PMS_P1;PMS_P2;Temp;Humidity;BMP_temperature;BMP_pressure;BME280_temperature;BME280_humidity;BME280_pressure;Samples;Min_cycle;Max_cycle;Signal;HPM_P1;HPM_P2
2022/05/11 00:01:56;;;;;;;21.35;14.20;;;;;;;;;;5014068;28;20064;-66
2022/05/11 00:04:23;;;;;;;24.23;15.68;;;;;;;;;;5014359;28;20100;-66
2022/05/11 00:06:50;;;;;;;20.90;14.25;;;;;;;;;;5013758;28;20510;-66
2022/05/11 00:09:18;;;;;;;18.90;12.85;;;;;;;;;;5014116;28;20046;-66
2022/05/11 00:11:45;;;;;;;24.33;14.73;;;;;;;;;;5013842;28;20054;-66
2022/05/11 00:14:13;;;;;;;21.80;13.75;;;;;;;;;;5014006;28;20054;-66
2022/05/11 00:16:42;;;;;;;22.55;13.65;;;;;;;;;;5013952;28;20192;-66
2022/05/11 00:19:09;;;;;;;21.80;13.40;;;;;;;;;;5013894;28;20050;-66
2022/05/11 00:21:36;;;;;;;19.15;12.38;;;;;;;;;;5013763;28;20042;-66
2022/05/11 00:24:03;;;;;;;21.17;14.07;;;;;;;;;;5013769;28;20392;-65
2022/05/11 00:26:30;;;;;;;22.75;13.18;;;;;;;;;;5013548;28;20505;-65
2022/05/11 00:28:57;;;;;;;21.40;13.50;;;;;;;;;;5013853;28;20564;-65
2022/05/11 00:31:24;;;;;;;20.40;12.57;;;;;;;;;;5013274;28;20060;-65
2022/05/11 00:33:52;;;;;;;21.05;13.25;;;;;;;;;;5013649;28;20137;-65
2022/05/11 00:36:20;;;;;;;18.08;12.27;;;;;;;;;;5012870;28;20042;-65
2022/05/11 00:38:47;;;;;;;21.48;12.52;;;;;;;;;;5013417;28;20050;-66
2022/05/11 00:41:14;;;;;;;19.85;12.10;;;;;;;;;;5013511;28;20399;-66
2022/05/11 00:43:42;;;;;;;18.38;11.65;;;;;;;;;;5013500;28;20046;-66
2022/05/11 00:46:16;;;;;;;17.80;11.68;;;;;;;;;;5007735;28;20046;-67
2022/05/11 00:51:35;;;;;;;17.63;11.90;;;;;;;;;;4993907;28;20057;-66
2022/05/11 00:54:05;;;;;;;19.52;12.85;;;;;;;;;;4994296;28;20046;-66
2022/05/11 00:56:33;;;;;;;21.55;14.10;;;;;;;;;;4993825;28;20401;-67
2022/05/11 00:59:06;;;;;;;20.85;13.18;;;;;;;;;;4993478;28;20050;-67
2022/05/11 01:01:33;;;;;;;21.80;13.13;;;;;;;;;;4993439;28;20050;-67
2022/05/11 01:04:05;;;;;;;19.77;12.95;;;;;;;;;;4993366;28;20050;-67
2022/05/11 01:06:34;;;;;;;20.75;13.00;;;;;;;;;;4993105;28;20408;-67
2022/05/11 01:09:02;;;;;;;21.33;13.70;;;;;;;;;;4993446;28;20092;-66
2022/05/11 01:11:30;;;;;;;20.23;12.98;;;;;;;;;;4993060;28;20047;-66
2022/05/11 01:13:58;;;;;;;20.98;13.95;;;;;;;;;;4993190;28;20053;-67
2022/05/11 01:16:27;;;;;;;21.20;13.90;;;;;;;;;;4993220;28;20112;-67
2022/05/11 01:18:54;;;;;;;24.45;15.02;;;;;;;;;;4993261;28;20085;-67
2022/05/11 01:21:24;;;;;;;20.15;13.30;;;;;;;;;;4992997;28;20046;-67
2022/05/11 01:23:56;;;;;;;22.97;14.23;;;;;;;;;;4993281;28;20466;-66
2022/05/11 01:26:25;;;;;;;19.35;13.27;;;;;;;;;;4992496;28;20487;-67
2022/05/11 01:28:54;;;;;;;24.95;14.18;;;;;;;;;;4993203;28;20053;-67
2022/05/11 01:31:22;;;;;;;19.85;12.90;;;;;;;;;;4992941;28;20097;-67
2022/05/11 01:33:51;;;;;;;18.80;12.18;;;;;;;;;;4993325;28;20046;-66
2022/05/11 01:36:26;;;;;;;17.40;11.73;;;;;;;;;;4993033;28;20393;-67
2022/05/11 01:38:56;;;;;;;20.15;12.02;;;;;;;;;;4993235;28;20054;-67
2022/05/11 01:41:27;;;;;;;19.00;11.98;;;;;;;;;;4993023;28;20058;-67
2022/05/11 01:43:55;;;;;;;20.00;11.90;;;;;;;;;;4993208;28;20050;-66
2022/05/11 01:46:22;;;;;;;19.75;11.43;;;;;;;;;;4992937;28;20101;-67
2022/05/11 01:48:49;;;;;;;18.98;12.27;;;;;;;;;;4993267;28;20054;-66
2022/05/11 01:51:18;;;;;;;17.40;11.88;;;;;;;;;;4992874;28;20524;-66
2022/05/11 01:53:46;;;;;;;19.10;11.52;;;;;;;;;;4992915;28;20050;-67
2022/05/11 01:56:15;;;;;;;19.65;11.45;;;;;;;;;;4993392;28;20355;-66
2022/05/11 01:58:43;;;;;;;19.58;11.20;;;;;;;;;;4994454;28;20129;-66
2022/05/11 02:01:10;;;;;;;17.58;12.20;;;;;;;;;;4993450;28;20048;-66
2022/05/11 02:03:37;;;;;;;19.80;11.57;;;;;;;;;;4993191;28;20049;-66
2022/05/11 02:08:49;;;;;;;17.48;11.15;;;;;;;;;;4993073;28;20546;-67
2022/05/11 02:11:16;;;;;;;19.30;12.07;;;;;;;;;;4993244;28;20411;-67
2022/05/11 02:13:45;;;;;;;19.83;12.25;;;;;;;;;;4993120;28;20074;-67
2022/05/11 02:16:13;;;;;;;17.30;11.70;;;;;;;;;;4992548;28;20101;-67
2022/05/11 02:18:41;;;;;;;20.33;12.75;;;;;;;;;;4993040;28;20535;-67
2022/05/11 02:21:08;;;;;;;22.15;13.05;;;;;;;;;;4992509;28;20051;-67
2022/05/11 02:23:37;;;;;;;20.80;13.60;;;;;;;;;;4992665;28;20104;-68
2022/05/11 02:26:05;;;;;;;22.13;13.18;;;;;;;;;;4992444;28;20050;-65
2022/05/11 02:28:32;;;;;;;21.08;12.88;;;;;;;;;;4992868;28;20050;-65
2022/05/11 02:31:00;;;;;;;21.98;12.75;;;;;;;;;;4993270;28;20500;-69
2022/05/11 02:33:28;;;;;;;21.70;13.80;;;;;;;;;;4992665;28;20057;-68
2022/05/11 02:35:56;;;;;;;20.17;12.68;;;;;;;;;;4992960;28;20563;-68
2022/05/11 02:38:25;;;;;;;22.95;13.77;;;;;;;;;;4992993;28;20053;-68
2022/05/11 02:40:52;;;;;;;16.90;11.43;;;;;;;;;;4996745;28;20085;-68
2022/05/11 02:43:20;;;;;;;22.33;12.82;;;;;;;;;;4996207;28;20046;-68
2022/05/11 02:45:48;;;;;;;23.80;13.38;;;;;;;;;;4996393;28;20052;-68
2022/05/11 02:48:19;;;;;;;22.95;12.50;;;;;;;;;;4996733;28;20418;-67
2022/05/11 02:50:48;;;;;;;22.13;12.93;;;;;;;;;;4996683;28;20058;-67
2022/05/11 02:53:15;;;;;;;22.77;13.70;;;;;;;;;;4996506;28;20046;-67
2022/05/11 02:55:44;;;;;;;20.13;12.57;;;;;;;;;;4996214;28;20061;-67
2022/05/11 02:58:12;;;;;;;22.40;13.88;;;;;;;;;;4996355;28;20050;-68
2022/05/11 03:00:43;;;;;;;20.25;12.25;;;;;;;;;;4995852;28;20145;-69
2022/05/11 03:03:12;;;;;;;20.73;13.55;;;;;;;;;;4996400;28;20104;-66
2022/05/11 03:05:42;;;;;;;19.90;11.68;;;;;;;;;;4995905;28;20046;-69
2022/05/11 03:08:09;;;;;;;20.27;12.90;;;;;;;;;;4995866;28;20042;-67
2022/05/11 03:10:37;;;;;;;19.63;11.75;;;;;;;;;;4995870;28;20164;-67
2022/05/11 03:13:04;;;;;;;19.98;12.95;;;;;;;;;;4995553;28;20049;-67
2022/05/11 03:15:32;;;;;;;20.00;12.10;;;;;;;;;;4995624;28;20416;-67
2022/05/11 03:17:59;;;;;;;21.67;12.80;;;;;;;;;;4995323;28;20085;-66
2022/05/11 03:20:27;;;;;;;23.33;13.02;;;;;;;;;;4995736;28;20081;-66
2022/05/11 03:22:56;;;;;;;20.85;12.63;;;;;;;;;;4995158;28;20065;-66
2022/05/11 03:25:25;;;;;;;20.95;12.68;;;;;;;;;;4995174;28;20416;-67
2022/05/11 03:27:53;;;;;;;27.25;12.80;;;;;;;;;;4995334;28;20332;-66
2022/05/11 03:30:20;;;;;;;22.38;14.00;;;;;;;;;;4995238;28;20054;-66
2022/05/11 03:35:32;;;;;;;24.13;13.02;;;;;;;;;;4995015;28;20522;-67
2022/05/11 03:38:00;;;;;;;21.40;13.23;;;;;;;;;;4995248;28;20482;-65
2022/05/11 03:40:27;;;;;;;23.23;13.95;;;;;;;;;;4995108;28;20050;-66
2022/05/11 03:42:54;;;;;;;24.73;14.23;;;;;;;;;;4994993;28;20053;-66
2022/05/11 03:45:23;;;;;;;23.08;13.18;;;;;;;;;;4994812;28;20411;-66
2022/05/11 03:47:51;;;;;;;25.38;13.60;;;;;;;;;;5013356;28;20046;-67
2022/05/11 03:50:22;;;;;;;20.70;12.68;;;;;;;;;;5013808;28;20052;-66
2022/05/11 03:52:49;;;;;;;26.17;13.73;;;;;;;;;;5014546;28;20081;-67
2022/05/11 03:55:18;;;;;;;24.92;12.60;;;;;;;;;;5014082;28;20128;-66
2022/05/11 03:57:45;;;;;;;24.80;13.93;;;;;;;;;;5014042;28;20046;-67
2022/05/11 04:00:16;;;;;;;21.90;11.80;;;;;;;;;;5014120;28;20501;-66
2022/05/11 04:02:43;;;;;;;23.77;13.18;;;;;;;;;;5014273;28;20089;-66
2022/05/11 04:05:13;;;;;;;23.52;12.10;;;;;;;;;;5014043;28;20052;-66
2022/05/11 04:07:40;;;;;;;23.13;13.10;;;;;;;;;;5014412;28;20050;-67
2022/05/11 04:10:09;;;;;;;21.65;12.15;;;;;;;;;;5014739;28;20404;-66
2022/05/11 04:12:38;;;;;;;23.15;12.40;;;;;;;;;;5014625;28;20096;-67
2022/05/11 04:15:06;;;;;;;20.42;11.85;;;;;;;;;;5014110;28;20148;-66
2022/05/11 04:17:34;;;;;;;20.80;12.05;;;;;;;;;;5014172;28;20053;-66
2022/05/11 04:20:01;;;;;;;18.15;11.35;;;;;;;;;;5013679;28;20097;-67
2022/05/11 04:22:29;;;;;;;19.30;11.27;;;;;;;;;;5014040;28;20161;-67
2022/05/11 04:24:56;;;;;;;21.48;12.10;;;;;;;;;;5013832;28;20085;-66
2022/05/11 04:27:24;;;;;;;16.50;10.95;;;;;;;;;;5014328;28;20057;-67
2022/05/11 04:29:52;;;;;;;19.65;10.88;;;;;;;;;;5013641;28;20045;-66
2022/05/11 04:32:20;;;;;;;21.55;12.30;;;;;;;;;;5013724;28;20060;-67
2022/05/11 04:34:47;;;;;;;20.23;11.57;;;;;;;;;;5013633;28;20125;-65
2022/05/11 04:37:14;;;;;;;25.40;13.65;;;;;;;;;;5014154;28;20518;-66
2022/05/11 04:39:41;;;;;;;24.42;13.65;;;;;;;;;;5013577;28;20049;-66
2022/05/11 04:42:09;;;;;;;21.67;12.90;;;;;;;;;;5014097;28;20507;-67
2022/05/11 04:44:36;;;;;;;25.30;14.20;;;;;;;;;;5013468;28;20054;-66
2022/05/11 04:47:09;;;;;;;22.20;13.52;;;;;;;;;;5001546;28;20050;-66
2022/05/11 04:49:36;;;;;;;20.25;12.02;;;;;;;;;;4994448;28;20073;-67
2022/05/11 04:52:07;;;;;;;23.67;13.35;;;;;;;;;;4993774;28;20475;-67
2022/05/11 04:54:36;;;;;;;24.20;13.25;;;;;;;;;;4993533;28;20380;-66
2022/05/11 04:57:04;;;;;;;21.63;12.73;;;;;;;;;;4993586;28;20478;-67
2022/05/11 04:59:32;;;;;;;19.75;11.90;;;;;;;;;;4993591;28;20054;-67
2022/05/11 05:01:59;;;;;;;21.45;12.43;;;;;;;;;;4992651;28;20134;-67
2022/05/11 05:04:27;;;;;;;20.77;12.40;;;;;;;;;;4993263;28;20113;-67
2022/05/11 05:06:54;;;;;;;22.92;12.50;;;;;;;;;;4993236;28;20468;-67
2022/05/11 05:09:21;;;;;;;20.23;11.75;;;;;;;;;;4993478;28;20042;-67
2022/05/11 05:11:49;;;;;;;21.92;12.55;;;;;;;;;;4993338;28;20054;-67
2022/05/11 05:14:16;;;;;;;22.23;12.77;;;;;;;;;;4993669;28;20483;-67
2022/05/11 05:16:43;;;;;;;26.38;12.48;;;;;;;;;;4993718;28;20054;-67
2022/05/11 05:19:11;;;;;;;21.90;12.48;;;;;;;;;;4993371;28;20046;-67
2022/05/11 05:21:39;;;;;;;20.30;11.88;;;;;;;;;;4993347;28;20408;-66
2022/05/11 05:24:07;;;;;;;22.05;12.05;;;;;;;;;;4993312;28;20043;-66
2022/05/11 05:26:34;;;;;;;21.20;11.85;;;;;;;;;;4993077;28;20415;-67
2022/05/11 05:31:46;;;;;;;17.90;11.75;;;;;;;;;;4993687;28;20426;-67
2022/05/11 05:34:13;;;;;;;20.33;12.00;;;;;;;;;;4993178;28;20125;-67
2022/05/11 05:36:42;;;;;;;18.63;11.35;;;;;;;;;;4992804;28;20053;-67
2022/05/11 05:39:09;;;;;;;19.85;11.70;;;;;;;;;;4992837;28;20130;-66
2022/05/11 05:41:36;;;;;;;17.38;10.75;;;;;;;;;;4993015;28;20503;-67
2022/05/11 05:44:06;;;;;;;15.55;9.30;;;;;;;;;;4993051;28;20046;-66
2022/05/11 05:46:34;;;;;;;15.10;9.48;;;;;;;;;;5011516;22;20128;-67
2022/05/11 05:49:01;;;;;;;19.05;10.38;;;;;;;;;;5012536;28;20391;-67
2022/05/11 05:51:28;;;;;;;22.08;11.85;;;;;;;;;;5012367;28;20415;-67
2022/05/11 05:53:57;;;;;;;15.55;9.50;;;;;;;;;;5012568;28;20495;-67
2022/05/11 05:56:24;;;;;;;15.45;9.38;;;;;;;;;;5012193;28;20058;-67
2022/05/11 05:58:51;;;;;;;16.90;9.43;;;;;;;;;;5012148;28;20057;-67
2022/05/11 06:01:18;;;;;;;17.42;9.23;;;;;;;;;;5012353;28;20065;-66
2022/05/11 06:03:46;;;;;;;15.30;8.52;;;;;;;;;;5012790;28;20053;-67
2022/05/11 06:06:13;;;;;;;15.73;9.55;;;;;;;;;;5012454;28;20053;-66
2022/05/11 06:08:40;;;;;;;14.30;9.38;;;;;;;;;;5012348;28;20057;-67
2022/05/11 06:11:09;;;;;;;15.70;8.68;;;;;;;;;;5011990;28;20104;-67
2022/05/11 06:13:37;;;;;;;18.92;10.93;;;;;;;;;;5013812;28;20137;-66
2022/05/11 06:16:11;;;;;;;16.65;9.00;;;;;;;;;;5016258;28;20050;-66
2022/05/11 06:18:40;;;;;;;16.73;9.38;;;;;;;;;;5016147;28;20417;-67
2022/05/11 06:21:07;;;;;;;12.30;7.80;;;;;;;;;;5016511;28;20065;-67
2022/05/11 06:23:34;;;;;;;12.80;7.38;;;;;;;;;;5016088;28;20046;-67
2022/05/11 06:26:02;;;;;;;17.90;8.98;;;;;;;;;;5015952;28;20518;-67
2022/05/11 06:28:30;;;;;;;15.55;10.15;;;;;;;;;;5016065;28;20053;-66
2022/05/11 06:30:57;;;;;;;14.63;8.85;;;;;;;;;;5015945;28;20089;-67
2022/05/11 06:33:24;;;;;;;11.82;7.82;;;;;;;;;;5016151;28;20050;-67
2022/05/11 06:35:51;;;;;;;13.13;7.38;;;;;;;;;;5015800;28;20498;-68
2022/05/11 06:38:18;;;;;;;13.98;8.13;;;;;;;;;;5015945;28;20056;-67
2022/05/11 06:40:45;;;;;;;15.27;7.57;;;;;;;;;;5015561;28;20061;-67
2022/05/11 06:43:12;;;;;;;13.25;7.68;;;;;;;;;;5015893;28;20092;-67
2022/05/11 06:45:41;;;;;;;12.45;8.00;;;;;;;;;;5015440;28;20096;-67
2022/05/11 06:48:09;;;;;;;12.02;7.50;;;;;;;;;;5015536;28;20111;-68
2022/05/11 06:50:36;;;;;;;13.55;6.85;;;;;;;;;;5015488;28;20127;-67
2022/05/11 06:53:09;;;;;;;13.35;7.57;;;;;;;;;;5015670;28;20046;-67
2022/05/11 07:01:09;;;;;;;13.45;7.15;;;;;;;;;;5015728;28;20086;-67
2022/05/11 07:03:36;;;;;;;16.52;8.15;;;;;;;;;;5015432;28;20053;-66
2022/05/11 07:06:04;;;;;;;13.57;8.63;;;;;;;;;;5015053;28;20054;-66
2022/05/11 07:08:35;;;;;;;13.15;7.32;;;;;;;;;;5015332;28;20050;-67
2022/05/11 07:13:47;;;;;;;15.38;8.32;;;;;;;;;;5015174;28;20172;-67
2022/05/11 07:16:16;;;;;;;16.40;8.52;;;;;;;;;;5014439;28;20053;-66
2022/05/11 07:18:43;;;;;;;12.10;7.55;;;;;;;;;;5015329;28;20181;-67
2022/05/11 07:21:10;;;;;;;15.07;7.93;;;;;;;;;;5014616;28;20046;-67
2022/05/11 07:23:37;;;;;;;15.05;9.27;;;;;;;;;;5015148;28;20080;-67
2022/05/11 07:26:04;;;;;;;12.80;8.30;;;;;;;;;;5013853;28;20061;-67
2022/05/11 07:28:31;;;;;;;15.85;9.30;;;;;;;;;;5014952;28;20046;-67
2022/05/11 07:30:58;;;;;;;14.52;8.07;;;;;;;;;;5014517;28;20046;-67
2022/05/11 07:33:28;;;;;;;13.45;8.48;;;;;;;;;;5014174;28;20146;-67
2022/05/11 07:35:55;;;;;;;14.10;9.02;;;;;;;;;;5014899;28;20535;-67
2022/05/11 07:38:22;;;;;;;12.57;7.95;;;;;;;;;;5014694;28;20514;-68
2022/05/11 07:40:49;;;;;;;15.52;7.88;;;;;;;;;;5014315;28;20053;-68
2022/05/11 07:43:16;;;;;;;12.48;8.20;;;;;;;;;;5014425;28;20502;-68
2022/05/11 07:45:44;;;;;;;12.07;8.13;;;;;;;;;;5012304;28;20052;-68
2022/05/11 07:48:11;;;;;;;12.85;8.00;;;;;;;;;;4995236;28;20050;-68
2022/05/11 07:50:40;;;;;;;14.63;8.07;;;;;;;;;;4994955;28;20056;-69
2022/05/11 07:53:07;;;;;;;14.00;8.48;;;;;;;;;;4994960;28;20399;-68
2022/05/11 07:55:36;;;;;;;11.77;7.68;;;;;;;;;;4994470;28;20050;-68
2022/05/11 08:00:47;;;;;;;13.30;9.05;;;;;;;;;;4994536;28;20065;-68
2022/05/11 08:03:14;;;;;;;18.52;11.48;;;;;;;;;;4994812;28;20125;-68
2022/05/11 08:05:43;;;;;;;10.48;7.57;;;;;;;;;;4994549;28;20046;-68
2022/05/11 08:08:10;;;;;;;10.85;7.28;;;;;;;;;;4994314;28;20050;-68
2022/05/11 08:10:40;;;;;;;12.73;7.55;;;;;;;;;;4994292;28;20057;-68
2022/05/11 08:13:07;;;;;;;10.43;7.43;;;;;;;;;;4994480;28;20050;-68
2022/05/11 08:15:37;;;;;;;9.48;7.22;;;;;;;;;;4994412;28;20057;-68
2022/05/11 08:18:06;;;;;;;12.15;7.80;;;;;;;;;;4994844;28;20050;-69
2022/05/11 08:20:35;;;;;;;12.68;7.80;;;;;;;;;;4994568;28;20046;-69
2022/05/11 08:23:05;;;;;;;10.10;7.85;;;;;;;;;;4994346;28;20115;-68
2022/05/11 08:25:34;;;;;;;11.45;8.07;;;;;;;;;;4993910;28;20500;-67
2022/05/11 08:28:02;;;;;;;13.98;8.15;;;;;;;;;;4994314;28;20546;-68
2022/05/11 08:33:27;;;;;;;13.40;7.97;;;;;;;;;;4994277;28;20061;-70
2022/05/11 08:35:56;;;;;;;10.80;7.50;;;;;;;;;;4994139;28;20050;-69
2022/05/11 08:38:28;;;;;;;9.43;7.63;;;;;;;;;;4994627;28;20145;-67
2022/05/11 08:40:59;;;;;;;10.00;7.00;;;;;;;;;;4995203;28;20116;-68
2022/05/11 08:43:31;;;;;;;11.60;7.15;;;;;;;;;;4994513;28;20064;-70
2022/05/11 08:46:07;;;;;;;11.52;7.03;;;;;;;;;;4997548;28;20050;-69
2022/05/11 08:48:45;;;;;;;10.35;7.10;;;;;;;;;;5013687;28;20140;-69
2022/05/11 08:51:20;;;;;;;10.20;7.40;;;;;;;;;;5013942;28;20042;-68
2022/05/11 08:53:57;;;;;;;12.10;7.53;;;;;;;;;;5013522;28;20056;-68
2022/05/11 08:56:29;;;;;;;9.15;6.70;;;;;;;;;;5013258;28;20054;-68
2022/05/11 08:58:57;;;;;;;11.98;7.78;;;;;;;;;;5013694;28;20046;-69
2022/05/11 09:01:29;;;;;;;10.95;7.00;;;;;;;;;;5013140;28;20046;-68
2022/05/11 09:03:59;;;;;;;11.70;9.00;;;;;;;;;;5013044;28;20077;-69
2022/05/11 09:06:27;;;;;;;8.68;6.55;;;;;;;;;;5012886;28;20049;-69
2022/05/11 09:08:57;;;;;;;12.35;7.50;;;;;;;;;;5013504;28;20442;-68
2022/05/11 09:11:28;;;;;;;12.13;7.93;;;;;;;;;;5012918;28;20056;-68
2022/05/11 09:13:57;;;;;;;9.73;7.65;;;;;;;;;;5013184;28;20339;-68
2022/05/11 09:16:27;;;;;;;12.98;7.80;;;;;;;;;;5012742;28;20046;-69
2022/05/11 09:18:56;;;;;;;13.63;8.75;;;;;;;;;;5013336;28;20499;-69
2022/05/11 09:21:32;;;;;;;10.60;7.13;;;;;;;;;;5013030;28;20566;-69
2022/05/11 09:24:13;;;;;;;10.35;7.22;;;;;;;;;;5012933;28;20144;-68
2022/05/11 09:26:44;;;;;;;9.88;6.95;;;;;;;;;;5012727;28;20062;-68
2022/05/11 09:29:19;;;;;;;10.57;6.97;;;;;;;;;;5013142;28;20144;-69
2022/05/11 09:31:47;;;;;;;11.05;7.03;;;;;;;;;;5013017;28;20049;-68
2022/05/11 09:34:24;;;;;;;13.57;7.45;;;;;;;;;;5013087;28;20137;-69
2022/05/11 09:36:58;;;;;;;10.07;7.70;;;;;;;;;;5012564;28;20080;-68
2022/05/11 09:39:29;;;;;;;15.38;7.20;;;;;;;;;;5012835;28;20085;-68
2022/05/11 09:42:01;;;;;;;8.82;7.15;;;;;;;;;;5012634;28;20410;-69
2022/05/11 09:44:40;;;;;;;11.57;6.88;;;;;;;;;;5012756;28;20053;-68
2022/05/11 09:47:25;;;;;;;7.65;6.22;;;;;;;;;;4999418;28;20049;-68
2022/05/11 09:49:52;;;;;;;8.90;6.32;;;;;;;;;;4992940;28;20462;-68
2022/05/11 09:52:30;;;;;;;10.13;6.38;;;;;;;;;;4992663;28;20499;-70
2022/05/11 09:54:59;;;;;;;13.23;6.97;;;;;;;;;;4993150;28;20052;-68
2022/05/11 09:57:28;;;;;;;10.00;6.55;;;;;;;;;;4993369;28;20397;-68
2022/05/11 10:00:20;;;;;;;10.75;7.05;;;;;;;;;;4992865;28;20046;-68
2022/05/11 10:02:50;;;;;;;9.45;6.55;;;;;;;;;;4992826;28;20058;-68
2022/05/11 10:05:24;;;;;;;9.30;6.35;;;;;;;;;;4992822;28;20054;-67
2022/05/11 10:07:56;;;;;;;11.45;6.80;;;;;;;;;;4992872;28;20054;-69
2022/05/11 10:10:32;;;;;;;8.50;6.28;;;;;;;;;;4992836;28;20050;-68
2022/05/11 10:13:13;;;;;;;9.52;6.43;;;;;;;;;;4992906;28;20054;-68
2022/05/11 10:24:28;;;;;;;8.90;6.10;;;;;;;;;;4993045;28;20113;-68
2022/05/11 10:27:01;;;;;;;9.50;5.97;;;;;;;;;;4992771;28;20126;-68
2022/05/11 10:29:41;;;;;;;7.13;5.53;;;;;;;;;;4992579;28;20118;-70
2022/05/11 10:32:12;;;;;;;7.78;6.22;;;;;;;;;;4992873;28;20085;-68
2022/05/11 10:34:50;;;;;;;8.10;6.15;;;;;;;;;;4992099;28;20061;-68
2022/05/11 10:37:26;;;;;;;8.35;5.88;;;;;;;;;;4992242;28;20628;-67
2022/05/11 10:40:15;;;;;;;8.07;5.70;;;;;;;;;;4992373;28;20535;-68
2022/05/11 10:42:49;;;;;;;8.68;6.20;;;;;;;;;;4992312;28;20414;-69
2022/05/11 10:45:20;;;;;;;7.38;5.95;;;;;;;;;;4992210;28;20407;-68
2022/05/11 10:48:08;;;;;;;7.95;5.40;;;;;;;;;;5010262;28;20060;-67
2022/05/11 10:50:46;;;;;;;7.47;5.13;;;;;;;;;;5011726;28;20141;-68
2022/05/11 10:53:24;;;;;;;6.28;4.80;;;;;;;;;;5011524;28;20061;-68
2022/05/11 10:56:01;;;;;;;7.95;5.05;;;;;;;;;;5011591;28;20058;-68
2022/05/11 10:58:42;;;;;;;7.78;5.13;;;;;;;;;;5011537;28;20053;-68
2022/05/11 11:01:11;;;;;;;7.22;5.13;;;;;;;;;;5014072;28;20507;-68
2022/05/11 11:04:02;;;;;;;8.63;5.38;;;;;;;;;;5014965;28;20062;-68
2022/05/11 11:07:13;;;;;;;7.35;5.10;;;;;;;;;;5014623;28;20050;-68
2022/05/11 11:09:51;;;;;;;7.93;5.38;;;;;;;;;;5015589;28;20157;-68
2022/05/11 11:12:34;;;;;;;7.68;5.57;;;;;;;;;;5015169;28;20057;-68
2022/05/11 11:15:06;;;;;;;8.25;5.35;;;;;;;;;;5015162;28;20418;-68
2022/05/11 11:17:34;;;;;;;11.95;6.10;;;;;;;;;;5014903;28;20054;-68
2022/05/11 11:20:04;;;;;;;12.73;5.65;;;;;;;;;;5014717;28;20096;-68
2022/05/11 11:23:02;;;;;;;11.30;5.68;;;;;;;;;;5014757;28;20050;-68
2022/05/11 11:25:44;;;;;;;7.03;5.00;;;;;;;;;;5014716;28;20116;-68
2022/05/11 11:28:14;;;;;;;8.90;5.30;;;;;;;;;;5014662;28;20538;-68
2022/05/11 11:30:44;;;;;;;8.48;5.40;;;;;;;;;;5014712;28;20061;-67
2022/05/11 11:33:23;;;;;;;9.50;5.43;;;;;;;;;;5014563;28;20058;-68
2022/05/11 11:35:56;;;;;;;7.38;5.60;;;;;;;;;;5014835;28;20053;-68
2022/05/11 11:38:28;;;;;;;10.23;5.85;;;;;;;;;;5014600;28;20049;-68
2022/05/11 11:41:21;;;;;;;7.57;5.57;;;;;;;;;;5014752;28;20065;-68
2022/05/11 11:43:57;;;;;;;8.20;4.45;;;;;;;;;;5014771;28;20054;-67
2022/05/11 11:49:10;;;;;;;7.50;5.10;;;;;;;;;;5012224;28;20324;-68
2022/05/11 11:51:54;;;;;;;6.55;4.45;;;;;;;;;;5015547;28;20060;-66
2022/05/11 11:54:30;;;;;;;6.13;4.97;;;;;;;;;;5013566;28;20137;-67
2022/05/11 11:56:58;;;;;;;7.65;4.95;;;;;;;;;;5014165;28;20100;-67
2022/05/11 11:59:41;;;;;;;6.65;4.65;;;;;;;;;;5015188;28;20076;-67
2022/05/11 12:02:27;;;;;;;7.95;4.57;;;;;;;;;;5015058;28;20514;-66
2022/05/11 12:05:11;;;;;;;7.75;4.38;;;;;;;;;;5014444;28;20470;-67
2022/05/11 12:16:06;;;;;;;6.57;4.78;;;;;;;;;;5014116;28;20550;-66
2022/05/11 12:18:38;;;;;;;6.57;5.03;;;;;;;;;;5014265;28;20582;-67
2022/05/11 12:21:13;;;;;;;7.90;5.10;;;;;;;;;;5014430;28;20050;-68
2022/05/11 12:23:49;;;;;;;6.85;4.60;;;;;;;;;;5014707;28;20104;-66
2022/05/11 12:26:23;;;;;;;8.52;5.00;;;;;;;;;;5013929;28;20469;-66
2022/05/11 12:28:50;;;;;;;8.18;4.65;;;;;;;;;;5014515;28;20484;-67
2022/05/11 12:31:27;;;;;;;7.38;4.18;;;;;;;;;;5014210;28;20049;-67
2022/05/11 12:33:56;;;;;;;10.93;5.35;;;;;;;;;;5014467;28;20506;-68
2022/05/11 12:36:35;;;;;;;8.27;4.82;;;;;;;;;;5014017;28;20502;-67
2022/05/11 12:39:02;;;;;;;7.70;5.00;;;;;;;;;;5013897;28;20542;-67
2022/05/11 12:41:29;;;;;;;9.52;5.10;;;;;;;;;;5013895;28;20108;-68
2022/05/11 12:43:59;;;;;;;7.25;4.47;;;;;;;;;;5013866;28;20049;-67
2022/05/11 12:46:27;;;;;;;;;;;;;;;;;;5014201;28;20044;-65
2022/05/11 12:48:56;;;;;;;7.18;4.65;;;;;;;;;;5013343;28;20363;-68
2022/05/11 12:51:28;;;;;;;7.43;4.85;;;;;;;;;;5013838;28;20050;-65
2022/05/11 12:53:58;;;;;;;5.63;4.32;;;;;;;;;;5013333;28;20071;-67
2022/05/11 12:56:28;;;;;;;7.35;4.38;;;;;;;;;;5012972;28;20057;-66
2022/05/11 12:58:58;;;;;;;7.95;5.00;;;;;;;;;;5013747;28;20594;-67
2022/05/11 13:01:27;;;;;;;7.50;4.57;;;;;;;;;;5013688;28;20248;-67
2022/05/11 13:03:58;;;;;;;9.10;5.50;;;;;;;;;;5013387;28;20107;-67
2022/05/11 13:06:29;;;;;;;7.35;5.03;;;;;;;;;;5013279;28;20060;-67
2022/05/11 13:09:00;;;;;;;6.90;5.03;;;;;;;;;;5013834;28;20054;-67
2022/05/11 13:11:28;;;;;;;9.82;5.03;;;;;;;;;;5012992;28;20053;-68
2022/05/11 13:13:59;;;;;;;6.63;4.45;;;;;;;;;;5013009;28;20050;-68
2022/05/11 13:16:31;;;;;;;8.27;5.20;;;;;;;;;;5012745;28;20470;-66
2022/05/11 13:19:07;;;;;;;8.82;5.50;;;;;;;;;;5013011;28;20646;-66
2022/05/11 13:21:37;;;;;;;7.50;5.18;;;;;;;;;;5013348;28;20050;-67
2022/05/11 13:24:08;;;;;;;7.75;5.18;;;;;;;;;;5012200;28;20056;-66
2022/05/11 13:26:40;;;;;;;11.93;5.28;;;;;;;;;;5012816;28;20133;-66
2022/05/11 13:29:17;;;;;;;5.88;4.82;;;;;;;;;;5012805;28;20058;-67
2022/05/11 13:31:46;;;;;;;7.68;5.13;;;;;;;;;;5012981;28;20411;-66
2022/05/11 13:34:32;;;;;;;8.52;5.25;;;;;;;;;;5012545;28;20053;-66
2022/05/11 13:37:01;;;;;;;7.95;5.45;;;;;;;;;;5012724;28;20050;-66
2022/05/11 13:39:36;;;;;;;10.48;5.60;;;;;;;;;;5012395;28;20046;-66
2022/05/11 13:42:14;;;;;;;8.88;5.18;;;;;;;;;;5012797;28;20077;-66
2022/05/11 13:44:47;;;;;;;7.88;4.88;;;;;;;;;;5027697;28;20050;-66
2022/05/11 13:50:31;;;;;;;7.32;5.13;;;;;;;;;;4981735;28;20208;-66
2022/05/11 13:53:00;;;;;;;7.93;5.20;;;;;;;;;;4993039;28;20129;-66
2022/05/11 13:55:32;;;;;;;6.07;4.67;;;;;;;;;;4992648;28;20462;-66
2022/05/11 13:58:24;;;;;;;7.75;4.70;;;;;;;;;;4993157;28;20268;-66
2022/05/11 14:00:52;;;;;;;6.32;4.85;;;;;;;;;;4992538;28;20531;-66
2022/05/11 14:03:20;;;;;;;6.53;4.82;;;;;;;;;;4992721;28;20053;-66
2022/05/11 14:05:47;;;;;;;7.22;4.53;;;;;;;;;;4992369;28;20053;-66
2022/05/11 14:08:14;;;;;;;7.07;5.07;;;;;;;;;;4992870;28;20046;-66
2022/05/11 14:10:42;;;;;;;8.88;4.47;;;;;;;;;;4992840;28;20046;-66
2022/05/11 14:13:09;;;;;;;6.22;4.70;;;;;;;;;;4992772;28;20133;-65
2022/05/11 14:15:37;;;;;;;8.15;4.70;;;;;;;;;;4992537;28;20054;-66
2022/05/11 14:18:10;;;;;;;8.82;5.28;;;;;;;;;;4992430;28;20415;-66
2022/05/11 14:20:38;;;;;;;6.75;4.97;;;;;;;;;;4992440;28;20058;-66
2022/05/11 14:23:06;;;;;;;6.82;4.68;;;;;;;;;;4992671;28;20057;-66
2022/05/11 14:25:33;;;;;;;7.18;4.65;;;;;;;;;;4992188;28;20145;-65
2022/05/11 14:28:02;;;;;;;8.32;5.05;;;;;;;;;;4992297;28;20085;-65
2022/05/11 14:30:29;;;;;;;7.20;4.80;;;;;;;;;;4992194;28;20510;-65
2022/05/11 14:32:56;;;;;;;6.68;4.38;;;;;;;;;;4992250;28;20054;-65
2022/05/11 14:35:25;;;;;;;8.90;5.10;;;;;;;;;;4995327;28;20096;-65
2022/05/11 14:37:53;;;;;;;6.88;4.43;;;;;;;;;;4996493;28;20051;-65
2022/05/11 14:40:22;;;;;;;5.88;4.32;;;;;;;;;;4996044;28;20046;-65
2022/05/11 14:42:49;;;;;;;;;;;;;;;;;;4996683;28;20058;-66
2022/05/11 14:45:18;;;;;;;7.00;5.10;;;;;;;;;;4995939;28;19925;-66
2022/05/11 14:47:49;;;;;;;7.43;5.00;;;;;;;;;;5013664;28;20470;-66
2022/05/11 14:50:20;;;;;;;6.65;5.22;;;;;;;;;;5016001;28;20049;-66
2022/05/11 14:52:47;;;;;;;6.35;4.50;;;;;;;;;;5016070;28;20507;-66
2022/05/11 14:55:14;;;;;;;7.78;4.65;;;;;;;;;;5015478;28;20483;-66
2022/05/11 15:03:11;;;;;;;9.93;5.18;;;;;;;;;;5015928;28;20061;-66
2022/05/11 15:05:39;;;;;;;7.20;5.20;;;;;;;;;;5015495;28;20084;-66
2022/05/11 15:08:07;;;;;;;6.78;4.65;;;;;;;;;;5015602;28;20050;-66
2022/05/11 15:10:34;;;;;;;8.57;5.00;;;;;;;;;;5015160;28;20046;-66
2022/05/11 15:15:48;;;;;;;11.65;5.32;;;;;;;;;;5015101;28;20078;-66
2022/05/11 15:18:17;;;;;;;6.03;4.55;;;;;;;;;;5015659;28;20050;-66
2022/05/11 15:20:46;;;;;;;11.82;6.07;;;;;;;;;;5015161;28;20042;-66
2022/05/11 15:23:14;;;;;;;5.43;3.97;;;;;;;;;;5015071;28;20456;-66
2022/05/11 15:25:42;;;;;;;6.68;4.63;;;;;;;;;;5014507;28;20045;-66
2022/05/11 15:28:10;;;;;;;8.27;4.80;;;;;;;;;;5015067;28;20045;-67
2022/05/11 15:30:39;;;;;;;6.68;3.97;;;;;;;;;;5014830;28;20050;-66
2022/05/11 15:33:11;;;;;;;6.28;4.25;;;;;;;;;;5015131;28;20545;-66
2022/05/11 15:35:39;;;;;;;10.23;4.82;;;;;;;;;;5014755;28;20065;-66
2022/05/11 15:38:06;;;;;;;7.28;4.35;;;;;;;;;;5015203;28;20428;-66
2022/05/11 15:40:34;;;;;;;6.45;3.97;;;;;;;;;;5014947;28;20120;-66
2022/05/11 15:43:01;;;;;;;7.13;4.03;;;;;;;;;;5015305;28;20100;-66
2022/05/11 15:45:29;;;;;;;8.95;4.60;;;;;;;;;;5014123;28;20057;-66